Sal, Cape Verde
Current Conditions -  °F | °C
As of 5:00 AM on Wednesday 26 Nov 2014 (Local Time) from GVAC Reporting Station
Scattered Clouds Scattered Clouds  
Wind Chill: 23°   Ceiling: Unl
Heat Index: 23°   Visibility: 6mi
Dew Point: 17°   Wind: 15mph
Humidity: 69%   Direction: 40°NE
Pressure: 30"   Gusts: NA
Location:  16.72°N, 22.93°W
Report Text: GVAC 260600Z 04013KT 9999 SCT014 23/17 Q1016 NOSIG
Loading
Personal Weather Stations






























Interactive Weather Map New forecast layout! Learn more

10-Day Weather Forecast

Advertisements
Track Severe Weather on mobile